Главная страница
METAR-TAF:

METAR-TAF

Аэропорты :

Heliport

Верёй, Норвегия

широта: 67-39-16N, долгота: 12-43-37E, высота над уровнем моря: 5 м

Текущие метеонаблюдения

Эта сводка был подготовлена 7 часа и 37 минут назад, в 13:50 UTC
Ветер 11 Узел от северный
Температура 11°C
Влажность 76%
Давление 1014 hPa
Видимость 10 км и более
Нет облачности ниже 1500 м, и нет кучево-дождевой облачности

METAR: ENVR 131350Z 35011KT CAVOK 11/07 Q1014

Время: 23:27 (21:27 UTC)


TAF: отсутствует

Метеонаблюдения и прогнозы для более 4000 аэропортов (сводки METAR и TAF).

Имеющиеся станции представлены на карте желтыми и красными точками.

Чтобы увидеть название станции, наведите на нее мышь.

Затем щелкните, чтобы увидеть метеонаблюдения и метеопрогнозы.

Управление картой: чтобы увеличить масштаб, щелкните зеленые кнопки с черным крестиком; чтобы уменьшить масштаб, щелкните зеленую кнопку с тире; для просмотра соседних карт щелкайте зеленые стрелки.


METAR-TAF: